Time;durP1;ratioP1;P1;durP2;ratioP2;P2;SDS_P1;SDS_P2;PMS_P1;PMS_P2;Temp;Humidity;BMP_temperature;BMP_pressure;BME280_temperature;BME280_humidity;BME280_pressure;Samples;Min_cycle;Max_cycle;Signal;HPM_P1;HPM_P2
2023/09/28 00:01:12;;;;;;;6.90;3.77;;;;;;;-145.18;100.00;46662.34;5013201;28;20068;-65
2023/09/28 00:03:38;;;;;;;4.63;3.40;;;;;;;-145.18;100.00;46656.50;5014027;28;20053;-65
2023/09/28 00:06:04;;;;;;;5.57;3.40;;;;;;;-145.18;100.00;46656.50;5013136;28;20030;-65
2023/09/28 00:08:29;;;;;;;5.23;3.20;;;;;;;-145.18;100.00;46664.31;5013144;28;20022;-65
2023/09/28 00:10:55;;;;;;;7.13;3.47;;;;;;;-145.18;100.00;46662.34;5013532;28;20021;-65
2023/09/28 00:13:20;;;;;;;5.67;3.60;;;;;;;-145.18;100.00;46656.50;5011781;28;20088;-65
2023/09/28 00:15:46;;;;;;;5.60;3.50;;;;;;;-145.18;100.00;46648.69;5012846;28;20394;-65
2023/09/28 00:18:12;;;;;;;5.73;3.30;;;;;;;-145.18;100.00;46660.41;5013569;28;20022;-65
2023/09/28 00:20:38;;;;;;;6.37;3.47;;;;;;;-145.18;100.00;46654.53;5012035;28;20445;-65
2023/09/28 00:23:04;;;;;;;5.40;3.37;;;;;;;-145.18;100.00;46654.53;5013420;28;20037;-65
2023/09/28 00:25:30;;;;;;;6.27;3.27;;;;;;;-145.18;100.00;46656.50;5013102;28;20037;-65
2023/09/28 00:27:58;;;;;;;5.63;3.60;;;;;;;-145.18;100.00;46650.63;5011706;28;20018;-64
2023/09/28 00:30:26;;;;;;;6.27;4.10;;;;;;;-145.18;100.00;46656.50;5007280;28;20021;-65
2023/09/28 00:32:55;;;;;;;5.27;3.50;;;;;;;-145.18;100.00;46652.59;5010367;28;20026;-65
2023/09/28 00:35:22;;;;;;;7.57;3.63;;;;;;;-145.18;100.00;46648.69;5012734;28;20128;-65
2023/09/28 00:37:48;;;;;;;8.33;4.17;;;;;;;-145.18;100.00;46652.59;5012819;28;20112;-65
2023/09/28 00:40:19;;;;;;;7.33;3.93;;;;;;;-145.18;100.00;46646.72;5012787;28;20536;-65
2023/09/28 00:42:52;;;;;;;9.57;4.03;;;;;;;-145.18;100.00;46648.69;5012556;28;20080;-65
2023/09/28 00:45:21;;;;;;;6.27;3.40;;;;;;;-145.18;100.00;46646.72;5012201;28;20034;-65
2023/09/28 00:47:50;;;;;;;7.23;3.47;;;;;;;-145.18;100.00;46644.78;5011786;28;20061;-65
2023/09/28 00:50:17;;;;;;;5.73;3.60;;;;;;;-145.18;100.00;46646.72;5011490;28;20456;-65
2023/09/28 00:52:52;;;;;;;7.70;3.47;;;;;;;-145.18;100.00;46648.69;5012419;28;20068;-65
2023/09/28 00:55:19;;;;;;;8.20;3.72;;;;;;;-145.18;100.00;46654.53;5003986;28;20109;-65
2023/09/28 00:57:46;;;;;;;6.33;3.70;;;;;;;-145.18;100.00;46642.81;5011439;28;20438;-66
2023/09/28 01:00:26;;;;;;;6.23;4.00;;;;;;;-145.18;100.00;46646.72;5005682;28;20038;-65
2023/09/28 01:02:53;;;;;;;6.07;3.97;;;;;;;-145.18;100.00;46644.78;5007446;28;20025;-65
2023/09/28 01:05:20;;;;;;;6.37;4.00;;;;;;;-145.18;100.00;46646.72;5010940;28;20036;-65
2023/09/28 01:07:46;;;;;;;6.87;4.30;;;;;;;-145.18;100.00;46642.81;5012001;28;20053;-65
2023/09/28 01:10:15;;;;;;;7.77;4.10;;;;;;;-145.18;100.00;46642.81;5012219;28;20022;-65
2023/09/28 01:12:41;;;;;;;6.33;4.10;;;;;;;-145.18;100.00;46644.78;5006520;28;20474;-65
2023/09/28 01:15:13;;;;;;;6.10;3.97;;;;;;;-145.18;100.00;46646.72;5007156;28;20064;-65
2023/09/28 01:17:40;;;;;;;6.33;3.70;;;;;;;-145.18;100.00;46640.88;5006225;28;20371;-65
2023/09/28 01:20:23;;;;;;;6.37;4.20;;;;;;;-145.18;100.00;46642.81;5010307;28;20113;-66
2023/09/28 01:22:49;;;;;;;7.13;4.07;;;;;;;-145.18;100.00;46677.97;5010513;28;20030;-65
2023/09/28 01:25:15;;;;;;;8.83;3.83;;;;;;;-145.18;100.00;46638.91;5001764;28;20041;-65
2023/09/28 01:27:46;;;;;;;7.33;3.90;;;;;;;-145.18;100.00;46642.81;5007995;28;20518;-65
2023/09/28 01:30:12;;;;;;;8.83;4.47;;;;;;;-145.18;100.00;46640.88;5010663;28;20489;-65
2023/09/28 01:32:38;;;;;;;9.97;4.57;;;;;;;-145.18;100.00;46660.41;5005196;28;20561;-65
2023/09/28 01:35:05;;;;;;;10.00;4.13;;;;;;;-145.18;100.00;46642.81;5011931;28;20029;-60
2023/09/28 01:37:55;;;;;;;7.57;4.53;;;;;;;-145.18;100.00;46638.91;5010707;28;20049;-60
2023/09/28 01:40:20;;;;;;;8.50;3.97;;;;;;;-145.18;100.00;46676.03;4981082;28;20045;-60
2023/09/28 01:42:46;;;;;;;8.50;3.97;;;;;;;-145.18;100.00;46642.81;5011866;28;20033;-60
2023/09/28 01:45:12;;;;;;;8.20;4.90;;;;;;;-145.18;100.00;46638.91;5009268;28;20203;-60
2023/09/28 01:47:38;;;;;;;7.70;4.40;;;;;;;-145.18;100.00;46640.88;5003227;28;20072;-60
2023/09/28 01:50:03;;;;;;;8.30;3.97;;;;;;;-145.18;100.00;46642.81;5006295;28;20113;-60
2023/09/28 01:52:29;;;;;;;7.77;4.30;;;;;;;-145.18;100.00;46644.78;5010373;28;20108;-60
2023/09/28 01:54:54;;;;;;;9.20;4.20;;;;;;;-145.18;100.00;46642.81;5011918;28;20032;-60
2023/09/28 01:57:20;;;;;;;9.03;4.67;;;;;;;-145.18;100.00;46644.78;5011261;28;20064;-60
2023/09/28 01:59:46;;;;;;;7.00;3.90;;;;;;;-145.18;100.00;46644.78;5005227;28;20469;-60
2023/09/28 02:02:11;;;;;;;7.87;3.93;;;;;;;-145.18;100.00;46640.88;5011942;28;20034;-60
2023/09/28 02:04:37;;;;;;;11.50;4.00;;;;;;;-145.18;100.00;46642.81;5011612;28;20053;-60
2023/09/28 02:07:04;;;;;;;6.97;4.20;;;;;;;-145.18;100.00;46644.78;5011396;28;20129;-60
2023/09/28 02:09:29;;;;;;;6.07;4.13;;;;;;;-145.18;100.00;46638.91;5011161;28;20042;-60
2023/09/28 02:11:55;;;;;;;7.30;4.23;;;;;;;-145.18;100.00;46642.81;5010361;28;20032;-60
2023/09/28 02:14:20;;;;;;;6.10;3.90;;;;;;;-145.18;100.00;46644.78;5015458;28;20065;-60
2023/09/28 02:16:45;;;;;;;7.07;4.00;;;;;;;-145.18;100.00;46642.81;5015706;28;20037;-60
2023/09/28 02:19:11;;;;;;;8.60;4.37;;;;;;;-145.18;100.00;46638.91;5014465;28;20066;-60
2023/09/28 02:21:37;;;;;;;7.13;4.30;;;;;;;-145.18;100.00;46640.88;5011008;28;20393;-60
2023/09/28 02:24:03;;;;;;;9.03;4.07;;;;;;;-145.18;100.00;46642.81;5014512;28;20032;-60
2023/09/28 02:26:28;;;;;;;7.60;4.50;;;;;;;-145.18;100.00;46640.88;5015305;28;20482;-60
2023/09/28 02:28:54;;;;;;;7.03;4.67;;;;;;;-145.18;100.00;46640.88;5014719;28;20053;-60
2023/09/28 02:31:19;;;;;;;5.83;4.10;;;;;;;-145.18;100.00;46660.41;5014664;28;20482;-60
2023/09/28 02:33:47;;;;;;;7.33;5.17;;;;;;;-145.18;100.00;46640.88;5007148;28;20029;-60
2023/09/28 02:36:12;;;;;;;7.43;4.03;;;;;;;-145.18;100.00;46640.88;5014945;28;20589;-60
2023/09/28 02:38:37;;;;;;;5.67;4.77;;;;;;;-145.18;100.00;46636.94;5015421;28;20125;-60
2023/09/28 02:41:03;;;;;;;9.70;4.93;;;;;;;-145.18;100.00;46660.41;5015482;28;20512;-60
2023/09/28 02:43:28;;;;;;;9.37;4.50;;;;;;;-145.18;100.00;46638.91;5010711;28;20077;-60
2023/09/28 02:45:55;;;;;;;8.07;4.70;;;;;;;-145.18;100.00;46638.91;5007372;28;20433;-60
2023/09/28 02:48:21;;;;;;;8.27;4.77;;;;;;;-145.18;100.00;46660.41;5012371;28;20026;-60
2023/09/28 02:50:48;;;;;;;8.83;4.73;;;;;;;-145.18;100.00;46636.94;5013504;28;20509;-60
2023/09/28 02:53:13;;;;;;;8.90;5.23;;;;;;;-145.18;100.00;46635.00;5014970;28;20422;-60
2023/09/28 02:55:39;;;;;;;8.03;5.33;;;;;;;-145.18;100.00;46635.00;5013580;28;20065;-60
2023/09/28 02:58:04;;;;;;;7.33;4.90;;;;;;;-145.18;100.00;46660.41;5014743;28;20030;-59
2023/09/28 03:00:32;;;;;;;10.57;5.97;;;;;;;-145.18;100.00;46660.41;5014434;28;20109;-60
2023/09/28 03:03:00;;;;;;;8.20;5.20;;;;;;;-145.18;100.00;46660.41;5014795;28;20030;-60
2023/09/28 03:05:27;;;;;;;8.73;5.70;;;;;;;-145.18;100.00;46660.41;5014582;28;20474;-60
2023/09/28 03:07:52;;;;;;;7.47;5.00;;;;;;;-145.18;100.00;46660.41;5011113;28;20053;-60
2023/09/28 03:10:19;;;;;;;8.23;5.40;;;;;;;-145.18;100.00;46660.41;5014441;28;20113;-60
2023/09/28 03:12:45;;;;;;;11.23;5.87;;;;;;;-145.18;100.00;46660.41;5014510;28;20026;-60
2023/09/28 03:15:11;;;;;;;9.30;5.80;;;;;;;-145.18;100.00;46660.41;5014789;28;20087;-60
2023/09/28 03:17:37;;;;;;;8.40;5.37;;;;;;;-145.18;100.00;46660.41;5013758;28;20026;-60
2023/09/28 03:20:17;;;;;;;10.33;6.53;;;;;;;-145.18;100.00;46660.41;5029570;28;20069;-60
2023/09/28 03:22:43;;;;;;;14.90;6.60;;;;;;;-145.18;100.00;46660.41;5005763;28;20042;-60
2023/09/28 03:25:13;;;;;;;14.23;6.50;;;;;;;-145.18;100.00;46660.41;5014246;28;20504;-60
2023/09/28 03:27:40;;;;;;;14.93;7.03;;;;;;;-145.18;100.00;46660.41;5014659;28;20053;-60
2023/09/28 03:30:10;;;;;;;8.03;5.57;;;;;;;-145.18;100.00;46660.41;5005163;28;20028;-60
2023/09/28 03:32:37;;;;;;;12.33;5.50;;;;;;;-145.18;100.00;46660.41;5014175;28;20088;-60
2023/09/28 03:35:05;;;;;;;9.97;4.80;;;;;;;-145.18;100.00;46660.41;5014235;28;20042;-60
2023/09/28 03:37:30;;;;;;;9.37;4.20;;;;;;;-145.18;100.00;46660.41;5013896;28;20129;-60
2023/09/28 03:39:58;;;;;;;8.30;3.70;;;;;;;-145.18;100.00;46660.41;5012759;28;20509;-60
2023/09/28 03:42:23;;;;;;;8.33;3.23;;;;;;;-145.18;100.00;46660.41;4995361;28;20520;-60
2023/09/28 03:44:49;;;;;;;9.83;3.23;;;;;;;-145.18;100.00;46660.41;5012896;28;20022;-60
2023/09/28 03:47:14;;;;;;;8.33;2.70;;;;;;;-145.18;100.00;46636.94;5012803;28;20030;-60
2023/09/28 03:49:39;;;;;;;12.10;2.97;;;;;;;-145.18;100.00;46642.81;5014152;28;20470;-60
2023/09/28 03:52:05;;;;;;;9.47;2.90;;;;;;;-145.18;100.00;46644.78;5014358;28;20057;-60
2023/09/28 03:54:30;;;;;;;7.60;2.80;;;;;;;-145.18;100.00;46644.78;5004824;28;20037;-60
2023/09/28 03:56:55;;;;;;;8.67;2.40;;;;;;;-145.18;100.00;46648.69;5012455;28;20080;-60
2023/09/28 03:59:21;;;;;;;8.40;2.70;;;;;;;-145.18;100.00;46654.53;5013790;28;20489;-60
2023/09/28 04:01:48;;;;;;;8.17;2.60;;;;;;;-145.18;100.00;46650.63;5012418;28;20389;-60
2023/09/28 04:04:13;;;;;;;8.03;2.70;;;;;;;-145.18;100.00;46650.63;5013326;28;20629;-60
2023/09/28 04:06:39;;;;;;;8.00;1.80;;;;;;;-145.18;100.00;46654.53;5013957;28;20046;-60
2023/09/28 04:09:07;;;;;;;10.63;1.80;;;;;;;-145.18;100.00;46656.50;5013140;28;20029;-60
2023/09/28 04:11:33;;;;;;;9.03;2.17;;;;;;;-145.18;100.00;46656.50;5013370;28;20041;-60
2023/09/28 04:14:01;;;;;;;12.57;2.20;;;;;;;-145.18;100.00;46658.44;5013202;28;20560;-60
2023/09/28 04:16:26;;;;;;;10.87;2.57;;;;;;;-145.18;100.00;46654.53;5013076;28;20038;-60
2023/09/28 04:18:51;;;;;;;10.90;2.40;;;;;;;-145.18;100.00;46658.44;5010950;28;20735;-60
2023/09/28 04:21:17;;;;;;;14.07;1.97;;;;;;;-145.18;100.00;46658.44;5005409;28;20034;-60
2023/09/28 04:23:42;;;;;;;15.07;2.67;;;;;;;-145.18;100.00;46656.50;5011952;28;20048;-60
2023/09/28 04:26:07;;;;;;;10.80;3.07;;;;;;;-145.18;100.00;46652.59;5013780;28;20465;-60
2023/09/28 04:28:33;;;;;;;16.23;3.03;;;;;;;-145.18;100.00;46652.59;5012982;28;20478;-60
2023/09/28 04:30:59;;;;;;;16.30;2.60;;;;;;;-145.18;100.00;46648.69;5004119;28;20033;-60
2023/09/28 04:33:24;;;;;;;14.30;2.70;;;;;;;-145.18;100.00;46650.63;5013229;28;20029;-60
2023/09/28 04:35:50;;;;;;;12.93;2.53;;;;;;;-145.18;100.00;46646.72;5012337;28;20535;-60
2023/09/28 04:38:15;;;;;;;16.37;2.27;;;;;;;-145.18;100.00;46644.78;5010998;28;20084;-60
2023/09/28 04:40:41;;;;;;;13.83;2.67;;;;;;;-145.18;100.00;46646.72;4999750;28;20400;-60
2023/09/28 04:43:08;;;;;;;9.30;2.43;;;;;;;-145.18;100.00;46646.72;5008567;28;20492;-60
2023/09/28 04:45:33;;;;;;;11.90;2.67;;;;;;;-145.18;100.00;46648.69;5013242;28;20030;-60
2023/09/28 04:47:59;;;;;;;12.93;3.00;;;;;;;-145.18;100.00;46646.72;5011264;28;20452;-60
2023/09/28 04:50:24;;;;;;;12.80;2.77;;;;;;;-145.18;100.00;46646.72;5011080;28;20066;-60
2023/09/28 04:52:50;;;;;;;17.03;2.80;;;;;;;-145.18;100.00;46648.69;5011163;28;20561;-60
2023/09/28 04:55:16;;;;;;;25.40;3.33;;;;;;;-145.18;100.00;46644.78;5011072;28;20099;-59
2023/09/28 04:57:41;;;;;;;16.50;2.73;;;;;;;-145.18;100.00;46646.72;5011459;28;20034;-60
2023/09/28 05:00:09;;;;;;;20.73;3.47;;;;;;;-145.18;100.00;46652.59;5009375;28;20056;-60
2023/09/28 05:02:35;;;;;;;18.43;2.90;;;;;;;-145.18;100.00;46646.72;5008918;28;20034;-60
2023/09/28 05:05:00;;;;;;;18.30;2.50;;;;;;;-145.18;100.00;46650.63;5008686;28;20504;-60
2023/09/28 05:07:26;;;;;;;19.07;3.00;;;;;;;-145.18;100.00;46650.63;5010928;28;20026;-60
2023/09/28 05:09:51;;;;;;;14.37;2.57;;;;;;;-145.18;100.00;46648.69;5010248;28;20096;-60
2023/09/28 05:12:16;;;;;;;20.97;3.57;;;;;;;-145.18;100.00;46646.72;5011146;28;20402;-60
2023/09/28 05:14:42;;;;;;;24.40;3.00;;;;;;;-145.18;100.00;46648.69;5010548;28;20096;-60
2023/09/28 05:17:07;;;;;;;19.60;2.90;;;;;;;-145.18;100.00;46648.69;5008650;28;20092;-65
2023/09/28 05:19:33;;;;;;;18.57;2.47;;;;;;;-145.18;100.00;46648.69;5010324;28;20100;-65
2023/09/28 05:21:58;;;;;;;17.03;2.40;;;;;;;-145.18;100.00;46650.63;5007726;28;20498;-65
2023/09/28 05:24:24;;;;;;;16.00;3.20;;;;;;;-145.18;100.00;46650.63;5008475;28;20032;-65
2023/09/28 05:26:50;;;;;;;18.23;2.73;;;;;;;-145.18;100.00;46642.81;5010971;28;20486;-65
2023/09/28 05:29:15;;;;;;;16.33;3.03;;;;;;;-145.18;100.00;46650.63;5010559;28;20018;-65
2023/09/28 05:31:41;;;;;;;16.07;2.43;;;;;;;-145.18;100.00;46646.72;5007909;28;20125;-65
2023/09/28 05:34:06;;;;;;;13.23;2.13;;;;;;;-145.18;100.00;46648.69;5010125;28;20104;-65
2023/09/28 05:36:33;;;;;;;13.30;2.67;;;;;;;-145.18;100.00;46650.63;5010579;28;20072;-65
2023/09/28 05:38:58;;;;;;;17.77;3.40;;;;;;;-145.18;100.00;46644.78;5007534;28;20084;-65
2023/09/28 05:41:23;;;;;;;14.80;2.50;;;;;;;-145.18;100.00;46646.72;5010576;28;20029;-65
2023/09/28 05:43:49;;;;;;;14.97;2.73;;;;;;;-145.18;100.00;46644.78;5007787;28;20061;-65
2023/09/28 05:46:14;;;;;;;18.60;2.53;;;;;;;-145.18;100.00;46646.72;5009003;28;20045;-65
2023/09/28 05:48:40;;;;;;;17.10;2.53;;;;;;;-145.18;100.00;46644.78;5011686;28;20113;-65
2023/09/28 05:51:05;;;;;;;18.30;2.80;;;;;;;-145.18;100.00;46646.72;5012243;28;20021;-65
2023/09/28 05:53:31;;;;;;;19.17;3.03;;;;;;;-145.18;100.00;46636.94;5011742;28;20053;-65
2023/09/28 05:55:56;;;;;;;19.63;2.67;;;;;;;-145.18;100.00;46644.78;5012093;28;20022;-65
2023/09/28 05:58:21;;;;;;;20.60;2.60;;;;;;;-145.18;100.00;46644.78;5011766;28;20034;-65
2023/09/28 06:00:47;;;;;;;13.17;2.20;;;;;;;-145.18;100.00;46646.72;5011431;28;20034;-65
2023/09/28 06:03:13;;;;;;;20.77;3.33;;;;;;;-145.18;100.00;46642.81;5012058;28;20038;-65
2023/09/28 06:05:39;;;;;;;18.97;2.93;;;;;;;-145.18;100.00;46642.81;5011925;28;20030;-65
2023/09/28 06:08:04;;;;;;;21.67;3.37;;;;;;;-145.18;100.00;46644.78;5010625;28;20044;-65
2023/09/28 06:10:30;;;;;;;17.63;3.40;;;;;;;-145.18;100.00;46644.78;5011724;28;20033;-65
2023/09/28 06:12:56;;;;;;;17.00;2.53;;;;;;;-145.18;100.00;46640.88;5010228;28;20109;-65
2023/09/28 06:15:21;;;;;;;22.17;3.17;;;;;;;-145.18;100.00;46644.78;5011652;28;20504;-65
2023/09/28 06:17:46;;;;;;;27.97;4.53;;;;;;;-145.18;100.00;46646.72;5010517;28;20079;-65
2023/09/28 06:20:12;;;;;;;19.43;3.10;;;;;;;-145.18;100.00;46646.72;5010138;28;20125;-65
2023/09/28 06:22:37;;;;;;;17.00;3.90;;;;;;;-145.18;100.00;46644.78;5012160;28;20060;-65
2023/09/28 06:25:03;;;;;;;21.73;3.17;;;;;;;-145.18;100.00;46644.78;5011829;28;20034;-59
2023/09/28 06:27:29;;;;;;;22.37;3.50;;;;;;;-145.18;100.00;46640.88;4993769;28;20025;-59
2023/09/28 06:29:55;;;;;;;22.47;3.37;;;;;;;-145.18;100.00;46640.88;5011829;28;20398;-59
2023/09/28 06:32:24;;;;;;;31.07;3.00;;;;;;;-145.18;100.00;46640.88;5004561;28;20601;-60
2023/09/28 06:34:50;;;;;;;19.70;2.87;;;;;;;-145.18;100.00;46638.91;5007884;28;20022;-59
2023/09/28 06:37:15;;;;;;;20.20;3.30;;;;;;;-145.18;100.00;46640.88;5011591;28;20097;-60
2023/09/28 06:39:41;;;;;;;25.83;3.77;;;;;;;-145.18;100.00;46642.81;5007023;28;20029;-59
2023/09/28 06:42:06;;;;;;;22.60;3.10;;;;;;;-145.18;100.00;46640.88;5002968;28;20033;-59
2023/09/28 06:44:33;;;;;;;23.97;3.87;;;;;;;-145.18;100.00;46642.81;5001635;28;20038;-60
2023/09/28 06:46:59;;;;;;;27.43;3.60;;;;;;;-145.18;100.00;46644.78;5010399;28;20029;-60
2023/09/28 06:49:26;;;;;;;24.87;3.33;;;;;;;-145.18;100.00;46646.72;5003376;28;20018;-60
2023/09/28 06:51:52;;;;;;;22.13;3.03;;;;;;;-145.18;100.00;46646.72;4996043;28;20490;-59
2023/09/28 06:54:19;;;;;;;22.73;3.30;;;;;;;-145.18;100.00;46642.81;5007670;28;20116;-60
2023/09/28 06:56:47;;;;;;;24.17;3.03;;;;;;;-145.18;100.00;46648.69;5010614;28;20026;-60
2023/09/28 06:59:13;;;;;;;21.20;3.70;;;;;;;-145.18;100.00;46642.81;5005430;28;20073;-59
2023/09/28 07:01:39;;;;;;;32.23;3.77;;;;;;;-145.18;100.00;46642.81;5014668;28;20077;-60
2023/09/28 07:04:05;;;;;;;22.90;3.30;;;;;;;-145.18;100.00;46644.78;5013886;28;20040;-59
2023/09/28 07:06:30;;;;;;;19.73;4.03;;;;;;;-145.18;100.00;46644.78;5014693;28;20029;-60
2023/09/28 07:08:57;;;;;;;30.27;3.43;;;;;;;-145.18;100.00;46644.78;5014253;28;20506;-60
2023/09/28 07:11:23;;;;;;;20.93;3.87;;;;;;;-145.18;100.00;46646.72;5008593;28;20025;-60
2023/09/28 07:13:49;;;;;;;31.87;4.63;;;;;;;-145.18;100.00;46646.72;5008149;28;20033;-60
2023/09/28 07:16:14;;;;;;;23.60;4.30;;;;;;;-145.18;100.00;46650.63;5001516;28;20023;-60
2023/09/28 07:18:39;;;;;;;23.10;4.10;;;;;;;-145.18;100.00;46652.59;5002410;28;20034;-60
2023/09/28 07:21:05;;;;;;;22.67;4.23;;;;;;;-145.18;100.00;46648.69;5004826;28;20056;-60
2023/09/28 07:23:31;;;;;;;22.00;3.50;;;;;;;-145.18;100.00;46650.63;5010221;28;20057;-60
2023/09/28 07:25:56;;;;;;;20.60;3.77;;;;;;;-145.18;100.00;46652.59;4980296;28;20018;-60
2023/09/28 07:28:22;;;;;;;19.77;3.93;;;;;;;-145.18;100.00;46658.44;5013933;28;20494;-60
2023/09/28 07:30:47;;;;;;;25.67;3.63;;;;;;;-145.18;100.00;46652.59;5010969;28;20033;-60
2023/09/28 07:33:15;;;;;;;26.47;3.40;;;;;;;-145.18;100.00;46654.53;5014172;28;20030;-60
2023/09/28 07:35:43;;;;;;;21.30;3.27;;;;;;;-145.18;100.00;46652.59;5014196;28;20048;-65
2023/09/28 07:38:08;;;;;;;27.43;3.30;;;;;;;-145.18;100.00;46652.59;5013514;28;20064;-65
2023/09/28 07:40:34;;;;;;;22.87;3.67;;;;;;;-145.18;100.00;46656.50;5013354;28;20454;-65
2023/09/28 07:42:59;;;;;;;28.33;3.63;;;;;;;-145.18;100.00;46650.63;5013702;28;20026;-65
2023/09/28 07:45:25;;;;;;;19.40;3.23;;;;;;;-145.18;100.00;46656.50;5014000;28;20033;-65
2023/09/28 07:47:50;;;;;;;25.13;4.57;;;;;;;-145.18;100.00;46658.44;5012409;28;20397;-65
2023/09/28 07:50:16;;;;;;;23.10;3.77;;;;;;;-145.18;100.00;46656.50;5008237;28;20024;-65
2023/09/28 07:52:42;;;;;;;23.07;3.73;;;;;;;-145.18;100.00;46658.44;5008235;28;20104;-65
2023/09/28 07:55:08;;;;;;;19.00;4.70;;;;;;;-145.18;100.00;46656.50;4995921;28;20030;-65
2023/09/28 07:57:33;;;;;;;22.37;3.80;;;;;;;-145.18;100.00;46666.25;5013531;28;20445;-65
2023/09/28 08:00:03;;;;;;;25.47;3.43;;;;;;;-145.18;100.00;46662.34;5013281;28;20105;-65
2023/09/28 08:02:29;;;;;;;26.67;3.70;;;;;;;-145.18;100.00;46668.22;5006659;28;20406;-65
2023/09/28 08:04:55;;;;;;;25.00;4.10;;;;;;;-145.18;100.00;46664.31;5013427;28;20504;-65
2023/09/28 08:07:21;;;;;;;17.17;4.03;;;;;;;-145.18;100.00;46674.06;5012250;28;20084;-65
2023/09/28 08:09:47;;;;;;;23.43;3.47;;;;;;;-145.18;100.00;46668.22;5010695;28;20050;-65
2023/09/28 08:12:13;;;;;;;18.40;3.23;;;;;;;-145.18;100.00;46668.22;5011929;28;20073;-65
2023/09/28 08:14:38;;;;;;;19.90;3.27;;;;;;;-145.18;100.00;46672.13;5013159;28;20025;-65
2023/09/28 08:17:04;;;;;;;19.67;3.27;;;;;;;-145.18;100.00;46668.22;5012683;28;20069;-65
2023/09/28 08:19:29;;;;;;;27.73;3.80;;;;;;;-145.18;100.00;46672.13;5012920;28;20061;-65
2023/09/28 08:21:55;;;;;;;23.63;3.57;;;;;;;-145.18;100.00;46670.16;5013042;28;20524;-65
2023/09/28 08:24:20;;;;;;;22.77;3.60;;;;;;;-145.18;100.00;46676.03;5013088;28;20084;-65
2023/09/28 08:26:46;;;;;;;21.80;3.30;;;;;;;-145.18;100.00;46676.03;5012985;28;20478;-65
2023/09/28 08:29:12;;;;;;;18.27;3.33;;;;;;;-145.18;100.00;46674.06;5012462;28;20026;-65
2023/09/28 08:31:37;;;;;;;28.90;4.07;;;;;;;-145.18;100.00;46674.06;4999430;28;20061;-65
2023/09/28 08:34:03;;;;;;;21.50;3.10;;;;;;;-145.18;100.00;46676.03;5012707;28;20041;-65
2023/09/28 08:36:29;;;;;;;15.57;2.60;;;;;;;-145.18;100.00;46676.03;5010948;28;20032;-65
2023/09/28 08:38:55;;;;;;;23.30;3.40;;;;;;;-145.18;100.00;46672.13;5011258;28;20033;-65
2023/09/28 08:41:46;;;;;;;17.10;3.23;;;;;;;-145.18;100.00;46670.16;5011930;28;20408;-65
2023/09/28 08:44:13;;;;;;;17.17;3.97;;;;;;;-145.18;100.00;46672.13;5005945;28;20383;-65
2023/09/28 08:46:39;;;;;;;21.60;4.03;;;;;;;-145.18;100.00;46676.03;5012837;28;20057;-60
2023/09/28 08:49:10;;;;;;;18.50;2.80;;;;;;;-145.18;100.00;46677.97;5012370;28;20026;-60
2023/09/28 08:51:38;;;;;;;20.57;3.07;;;;;;;-145.18;100.00;46679.94;5010024;28;20017;-60
2023/09/28 08:54:07;;;;;;;20.73;3.87;;;;;;;-145.18;100.00;46676.03;5012163;28;20084;-60
2023/09/28 08:56:39;;;;;;;18.37;3.83;;;;;;;-145.18;100.00;46677.97;5012218;28;20076;-60
2023/09/28 08:59:05;;;;;;;28.93;4.40;;;;;;;-145.18;100.00;46679.94;5011968;28;20076;-60
2023/09/28 09:01:32;;;;;;;22.47;4.30;;;;;;;-145.18;100.00;46676.03;5011986;28;20421;-60
2023/09/28 09:03:58;;;;;;;22.83;3.07;;;;;;;-145.18;100.00;46666.25;5012314;28;20041;-60
2023/09/28 09:06:28;;;;;;;24.83;3.67;;;;;;;-145.18;100.00;46656.50;5012203;28;20496;-60
2023/09/28 09:08:56;;;;;;;28.70;3.60;;;;;;;-145.18;100.00;46615.47;5012176;28;20022;-60
2023/09/28 09:11:22;;;;;;;23.63;3.40;;;;;;;-145.18;100.00;46595.94;5027095;28;20555;-60
2023/09/28 09:13:48;;;;;;;22.57;3.70;;;;;;;-145.18;100.00;46601.78;5011963;28;20036;-60
2023/09/28 09:16:14;;;;;;;21.87;3.73;;;;;;;-145.18;100.00;46570.53;5011813;28;20022;-60
2023/09/28 09:18:41;;;;;;;21.63;3.77;;;;;;;-145.18;100.00;46586.16;5011982;28;20037;-60
2023/09/28 09:21:07;;;;;;;18.47;4.03;;;;;;;-145.18;100.00;46576.41;5010618;28;20030;-60
2023/09/28 09:23:33;;;;;;;17.10;3.03;;;;;;;-145.18;100.00;46572.50;5011849;28;20025;-60
2023/09/28 09:25:58;;;;;;;17.57;2.67;;;;;;;-145.18;100.00;46580.31;5011699;28;20041;-60
2023/09/28 09:28:32;;;;;;;19.73;2.67;;;;;;;-145.18;100.00;46560.78;5012200;28;20095;-60
2023/09/28 09:30:58;;;;;;;13.83;2.90;;;;;;;-145.18;100.00;46564.69;5008694;28;20026;-59
2023/09/28 09:33:25;;;;;;;14.67;3.80;;;;;;;-145.18;100.00;46558.81;5001200;28;20026;-60
2023/09/28 09:35:51;;;;;;;23.43;3.90;;;;;;;-145.18;100.00;46551.00;5011618;28;20040;-60
2023/09/28 09:38:24;;;;;;;17.63;3.50;;;;;;;-145.18;100.00;46552.97;5011421;28;20128;-60
2023/09/28 09:41:08;;;;;;;19.67;3.97;;;;;;;-145.18;100.00;46543.19;5011807;28;20029;-60
2023/09/28 09:43:35;;;;;;;14.87;3.10;;;;;;;-145.18;100.00;46549.06;5009814;28;20517;-60
2023/09/28 09:46:09;;;;;;;16.30;3.23;;;;;;;-145.18;100.00;46551.00;5011169;28;20057;-60
2023/09/28 09:48:40;;;;;;;18.23;2.50;;;;;;;-145.18;100.00;46549.06;5011502;28;20052;-60
2023/09/28 09:51:12;;;;;;;18.63;3.17;;;;;;;-145.18;100.00;46551.00;5008013;28;20030;-60
2023/09/28 09:53:46;;;;;;;17.13;2.83;;;;;;;-145.18;100.00;46549.06;5011766;28;20042;-59
2023/09/28 09:56:14;;;;;;;21.65;3.55;;;;;;;-145.18;100.00;46549.06;5006175;28;20494;-60
2023/09/28 09:58:49;;;;;;;16.30;2.90;;;;;;;-145.18;100.00;46556.88;5011448;28;20041;-60
2023/09/28 10:01:19;;;;;;;19.20;4.15;;;;;;;-145.18;100.00;46560.78;5011405;28;20045;-60
2023/09/28 10:03:51;;;;;;;18.10;3.23;;;;;;;-145.18;100.00;46554.91;5011484;28;20030;-60
2023/09/28 10:06:19;;;;;;;16.80;2.70;;;;;;;-145.18;100.00;46552.97;5008891;28;20109;-60
2023/09/28 10:08:46;;;;;;;20.80;3.87;;;;;;;-145.18;100.00;46554.91;5010179;28;20121;-60
2023/09/28 10:11:12;;;;;;;19.77;3.43;;;;;;;-145.18;100.00;46562.72;5011462;28;20087;-60
2023/09/28 10:13:39;;;;;;;22.23;3.70;;;;;;;-145.18;100.00;46554.91;5010897;28;20029;-60
2023/09/28 10:16:07;;;;;;;18.00;2.93;;;;;;;-145.18;100.00;46568.59;5010828;28;20030;-60
2023/09/28 10:18:36;;;;;;;20.47;3.27;;;;;;;-145.18;100.00;46554.91;5010947;28;20030;-60
2023/09/28 10:21:01;;;;;;;20.90;3.67;;;;;;;-145.18;100.00;46560.78;5011450;28;20026;-60
2023/09/28 10:23:28;;;;;;;22.23;3.93;;;;;;;-145.18;100.00;46560.78;5011499;28;20474;-60
2023/09/28 10:26:06;;;;;;;16.03;2.87;;;;;;;-145.18;100.00;46558.81;5011114;28;20032;-60
2023/09/28 10:28:33;;;;;;;14.90;2.97;;;;;;;-145.18;100.00;46549.06;5008516;28;20061;-60
2023/09/28 10:31:04;;;;;;;19.00;3.50;;;;;;;-145.18;100.00;46556.88;5011270;28;20022;-60
2023/09/28 10:33:32;;;;;;;16.07;3.87;;;;;;;-145.18;100.00;46570.53;5006490;28;20430;-60
2023/09/28 10:36:13;;;;;;;20.40;3.00;;;;;;;-145.18;100.00;46562.72;5014896;28;20054;-60
2023/09/28 10:38:41;;;;;;;14.07;3.03;;;;;;;-145.18;100.00;46566.63;5010064;28;20128;-60
2023/09/28 10:41:07;;;;;;;14.80;3.30;;;;;;;-145.18;100.00;46554.91;5014919;28;20144;-60
2023/09/28 10:43:44;;;;;;;16.23;3.93;;;;;;;-145.18;100.00;46562.72;5013978;28;20034;-60
2023/09/28 10:46:09;;;;;;;18.73;3.13;;;;;;;-145.18;100.00;46564.69;5015182;28;20050;-60
2023/09/28 10:48:45;;;;;;;11.17;2.30;;;;;;;-145.18;100.00;46558.81;5015162;28;20049;-59
2023/09/28 10:51:12;;;;;;;14.70;2.47;;;;;;;-145.18;100.00;46566.63;5015133;28;20076;-60
2023/09/28 10:53:38;;;;;;;21.77;2.60;;;;;;;-145.18;100.00;46572.50;5013305;28;20036;-59
2023/09/28 10:56:06;;;;;;;16.93;2.63;;;;;;;-145.18;100.00;46572.50;5013457;28;20038;-59
2023/09/28 10:58:36;;;;;;;15.40;2.57;;;;;;;-145.18;100.00;46562.72;5014328;28;20413;-59
2023/09/28 11:01:06;;;;;;;19.57;2.90;;;;;;;-145.18;100.00;46570.53;5014753;28;20033;-59
2023/09/28 11:03:33;;;;;;;19.27;3.50;;;;;;;-145.18;100.00;46560.78;5013788;28;20532;-59